Time,TemperatureF,DewpointF,PressureIn,WindDirection,WindDirectionDegrees,WindSpeedMPH,WindSpeedGustMPH,Humidity,HourlyPrecipIn,Conditions,Clouds,dailyrainin,SoftwareType,DateUTC
2014-02-14 00:01:00,55.9,50.9,30.00,NE,45,1.0,-999.0,83,-99.99,,,-99.99,meteohub,2014-02-14 05:01:00,
2014-02-14 00:02:00,55.9,50.9,30.00,NE,45,1.0,-999.0,83,-99.99,,,-99.99,meteohub,2014-02-14 05:02:00,
2014-02-14 00:03:00,55.9,50.9,30.00,NE,45,0.0,-999.0,83,-99.99,,,-99.99,meteohub,2014-02-14 05:03:00,
2014-02-14 00:04:00,55.9,50.9,30.00,NE,45,2.0,-999.0,83,-99.99,,,-99.99,meteohub,2014-02-14 05:04:00,
2014-02-14 00:05:00,55.9,50.9,30.00,NE,45,1.0,-999.0,83,-99.99,,,-99.99,meteohub,2014-02-14 05:05:00,
2014-02-14 00:10:00,55.9,50.9,30.00,NNE,22,1.0,-999.0,83,-99.99,,,-99.99,meteohub,2014-02-14 05:10:00,
2014-02-14 00:15:00,55.0,50.0,30.00,North,0,1.0,-999.0,83,-99.99,,,-99.99,meteohub,2014-02-14 05:15:00,
2014-02-14 00:20:00,55.0,51.6,30.00,North,0,0.0,-999.0,88,-99.99,,,-99.99,meteohub,2014-02-14 05:20:00,
2014-02-14 00:25:00,55.0,50.0,30.00,NNE,22,2.0,-999.0,83,-99.99,,,-99.99,meteohub,2014-02-14 05:25:00,
2014-02-14 00:31:00,55.0,50.4,30.00,NE,45,0.0,-999.0,84,-99.99,,,-99.99,meteohub,2014-02-14 05:31:00,
2014-02-14 00:36:00,55.0,50.4,29.99,NE,45,2.0,-999.0,84,-99.99,,,-99.99,meteohub,2014-02-14 05:36:00,
2014-02-14 00:41:00,55.0,51.8,29.99,NE,45,0.0,-999.0,89,-99.99,,,-99.99,meteohub,2014-02-14 05:41:00,
2014-02-14 00:46:00,55.0,50.4,29.99,NE,45,0.0,-999.0,84,-99.99,,,-99.99,meteohub,2014-02-14 05:46:00,
2014-02-14 00:51:00,55.0,50.4,29.99,NE,45,3.0,-999.0,84,-99.99,,,-99.99,meteohub,2014-02-14 05:51:00,
2014-02-14 00:56:00,55.0,50.4,29.99,NE,45,1.0,-999.0,84,-99.99,,,-99.99,meteohub,2014-02-14 05:56:00,
2014-02-14 01:01:00,55.0,50.5,29.99,NE,45,2.0,-999.0,85,-99.99,,,-99.99,meteohub,2014-02-14 06:01:00,
2014-02-14 01:06:00,55.0,50.5,29.99,NE,45,3.0,-999.0,85,-99.99,,,-99.99,meteohub,2014-02-14 06:06:00,
2014-02-14 01:11:00,55.0,50.5,29.99,North,0,0.0,-999.0,85,-99.99,,,-99.99,meteohub,2014-02-14 06:11:00,
2014-02-14 01:17:00,54.0,51.1,29.99,North,0,0.0,-999.0,90,-99.99,,,-99.99,meteohub,2014-02-14 06:17:00,
2014-02-14 01:22:00,54.0,49.8,29.99,SSE,157,2.0,-999.0,86,-99.99,,,-99.99,meteohub,2014-02-14 06:22:00,
2014-02-14 01:27:00,54.0,49.8,29.99,NNE,22,1.0,-999.0,86,-99.99,,,-99.99,meteohub,2014-02-14 06:27:00,
2014-02-14 01:32:00,54.0,49.6,29.99,NW,315,0.0,-999.0,85,-99.99,,,-99.99,meteohub,2014-02-14 06:32:00,
2014-02-14 01:37:00,54.0,49.8,29.99,SE,135,1.0,-999.0,86,-99.99,,,-99.99,meteohub,2014-02-14 06:37:00,
2014-02-14 01:42:00,54.0,49.8,29.98,NE,45,1.0,-999.0,86,-99.99,,,-99.99,meteohub,2014-02-14 06:42:00,
2014-02-14 01:47:00,54.0,49.8,29.98,NE,45,0.0,-999.0,86,-99.99,,,-99.99,meteohub,2014-02-14 06:47:00,
2014-02-14 01:52:00,54.0,51.4,29.98,SE,135,1.0,-999.0,91,-99.99,,,-99.99,meteohub,2014-02-14 06:52:00,
2014-02-14 01:57:00,54.0,49.8,29.98,North,0,0.0,-999.0,86,-99.99,,,-99.99,meteohub,2014-02-14 06:57:00,
2014-02-14 02:02:00,54.0,49.8,29.98,NE,45,1.0,-999.0,86,-99.99,,,-99.99,meteohub,2014-02-14 07:02:00,
2014-02-14 02:07:00,54.0,49.8,29.98,North,0,0.0,-999.0,86,-99.99,,,-99.99,meteohub,2014-02-14 07:07:00,
2014-02-14 02:12:00,54.0,49.8,29.98,NNE,22,1.0,-999.0,86,-99.99,,,0.00,meteohub,2014-02-14 07:12:00,
2014-02-14 02:17:00,54.0,49.8,29.98,NE,45,0.0,-999.0,86,-99.99,,,-99.99,meteohub,2014-02-14 07:17:00,
2014-02-14 02:22:00,54.0,49.8,29.98,NNW,337,0.0,-999.0,86,-99.99,,,0.00,meteohub,2014-02-14 07:22:00,
2014-02-14 02:27:00,54.0,51.6,29.98,NNW,337,0.0,-999.0,92,-99.99,,,0.00,meteohub,2014-02-14 07:27:00,
2014-02-14 02:32:00,54.0,50.2,29.98,NNE,22,0.0,-999.0,87,-99.99,,,0.00,meteohub,2014-02-14 07:32:00,
2014-02-14 02:37:00,54.0,50.2,29.98,NE,45,0.0,-999.0,87,-99.99,,,0.00,meteohub,2014-02-14 07:37:00,
2014-02-14 02:42:00,54.0,49.8,29.96,NE,45,2.0,-999.0,86,-99.99,,,-99.99,meteohub,2014-02-14 07:42:00,
2014-02-14 02:47:00,53.1,48.9,29.96,NE,45,2.0,-999.0,86,-99.99,,,-99.99,meteohub,2014-02-14 07:47:00,
2014-02-14 02:52:00,53.1,48.9,29.96,North,0,1.0,-999.0,86,-99.99,,,-99.99,meteohub,2014-02-14 07:52:00,
2014-02-14 02:57:00,53.1,49.3,29.96,South,180,0.0,-999.0,87,-99.99,,,0.00,meteohub,2014-02-14 07:57:00,
2014-02-14 03:02:00,53.1,50.7,29.98,NE,45,0.0,-999.0,92,-99.99,,,-99.99,meteohub,2014-02-14 08:02:00,
2014-02-14 03:07:00,53.1,49.3,29.98,NNW,337,0.0,-999.0,87,-99.99,,,-99.99,meteohub,2014-02-14 08:07:00,
2014-02-14 03:12:00,53.1,49.3,29.96,NE,45,0.0,-999.0,87,-99.99,,,-99.99,meteohub,2014-02-14 08:12:00,
2014-02-14 03:17:00,53.1,49.3,29.96,SW,225,1.0,-999.0,87,-99.99,,,-99.99,meteohub,2014-02-14 08:17:00,
2014-02-14 03:22:00,53.1,49.3,29.96,North,0,0.0,-999.0,87,-99.99,,,0.00,meteohub,2014-02-14 08:22:00,
2014-02-14 03:27:00,53.1,49.6,29.96,NE,45,0.0,-999.0,88,-99.99,,,0.00,meteohub,2014-02-14 08:27:00,
2014-02-14 03:32:00,53.1,49.6,29.96,NE,45,0.0,-999.0,88,-99.99,,,-99.99,meteohub,2014-02-14 08:32:00,
2014-02-14 03:37:00,53.1,51.1,29.96,NE,45,0.0,-999.0,93,-99.99,,,-99.99,meteohub,2014-02-14 08:37:00,
2014-02-14 03:42:00,53.1,49.6,29.96,NE,45,1.0,-999.0,88,-99.99,,,0.00,meteohub,2014-02-14 08:42:00,
2014-02-14 03:47:00,53.1,49.6,29.96,NNW,337,2.0,-999.0,88,-99.99,,,0.00,meteohub,2014-02-14 08:47:00,
2014-02-14 03:52:00,52.0,48.6,29.96,NE,45,1.0,-999.0,88,-99.99,,,0.00,meteohub,2014-02-14 08:52:00,
2014-02-14 03:57:00,52.0,48.6,29.96,North,0,0.0,-999.0,88,-99.99,,,-99.99,meteohub,2014-02-14 08:57:00,
2014-02-14 04:02:00,52.0,48.6,29.96,NE,45,0.0,-999.0,88,-99.99,,,-99.99,meteohub,2014-02-14 09:02:00,
2014-02-14 04:07:00,52.0,48.6,29.96,NW,315,2.0,-999.0,88,-99.99,,,-99.99,meteohub,2014-02-14 09:07:00,
2014-02-14 04:12:00,52.0,50.4,29.96,North,0,0.0,-999.0,94,-99.99,,,-99.99,meteohub,2014-02-14 09:12:00,
2014-02-14 04:17:00,52.0,48.9,29.96,NNE,22,4.0,-999.0,89,-99.99,,,0.00,meteohub,2014-02-14 09:17:00,
2014-02-14 04:22:00,52.0,48.9,29.96,South,180,0.0,-999.0,89,-99.99,,,-99.99,meteohub,2014-02-14 09:22:00,
2014-02-14 04:27:00,52.0,48.9,29.96,NW,315,0.0,-999.0,89,-99.99,,,-99.99,meteohub,2014-02-14 09:27:00,
2014-02-14 04:32:00,52.0,49.1,29.96,SW,225,2.0,-999.0,90,-99.99,,,-99.99,meteohub,2014-02-14 09:32:00,
2014-02-14 04:37:00,52.0,48.9,29.98,North,0,2.0,-999.0,89,-99.99,,,-99.99,meteohub,2014-02-14 09:37:00,
2014-02-14 04:42:00,52.0,49.1,29.98,NNE,22,2.0,-999.0,90,-99.99,,,-99.99,meteohub,2014-02-14 09:42:00,
2014-02-14 04:47:00,51.1,49.6,29.98,NE,45,0.0,-999.0,95,-99.99,,,-99.99,meteohub,2014-02-14 09:47:00,
2014-02-14 04:52:00,52.0,49.1,29.98,NE,45,2.0,-999.0,90,-99.99,,,-99.99,meteohub,2014-02-14 09:52:00,
2014-02-14 04:57:00,52.0,49.1,29.98,NE,45,3.0,-999.0,90,-99.99,,,-99.99,meteohub,2014-02-14 09:57:00,
2014-02-14 05:02:00,51.1,48.2,29.98,North,0,2.0,-999.0,90,-99.99,,,-99.99,meteohub,2014-02-14 10:02:00,
2014-02-14 05:07:00,51.1,48.2,29.98,NE,45,3.0,-999.0,90,-99.99,,,-99.99,meteohub,2014-02-14 10:07:00,
2014-02-14 05:12:00,51.1,48.2,29.98,NE,45,0.0,-999.0,90,-99.99,,,-99.99,meteohub,2014-02-14 10:12:00,
2014-02-14 05:17:00,51.1,48.2,30.00,North,0,6.0,-999.0,90,-99.99,,,-99.99,meteohub,2014-02-14 10:17:00,
2014-02-14 05:22:00,50.0,48.9,30.00,NE,45,3.0,-999.0,96,-99.99,,,-99.99,meteohub,2014-02-14 10:22:00,
2014-02-14 05:27:00,51.1,48.2,30.00,SE,135,2.0,-999.0,90,-99.99,,,-99.99,meteohub,2014-02-14 10:27:00,
2014-02-14 05:32:00,51.1,48.2,30.00,NNE,22,6.0,-999.0,90,-99.99,,,-99.99,meteohub,2014-02-14 10:32:00,
2014-02-14 05:37:00,51.1,48.2,30.00,NE,45,6.0,-999.0,90,-99.99,,,-99.99,meteohub,2014-02-14 10:37:00,
2014-02-14 05:42:00,51.1,48.6,30.00,NE,45,1.0,-999.0,91,-99.99,,,-99.99,meteohub,2014-02-14 10:42:00,
2014-02-14 05:47:00,51.1,48.6,30.00,NE,45,1.0,-999.0,91,-99.99,,,-99.99,meteohub,2014-02-14 10:47:00,
2014-02-14 05:52:00,50.0,47.5,30.00,SE,135,0.0,-999.0,91,-99.99,,,-99.99,meteohub,2014-02-14 10:52:00,
2014-02-14 05:57:00,50.0,48.9,30.01,NE,45,4.0,-999.0,96,-99.99,,,-99.99,meteohub,2014-02-14 10:57:00,
2014-02-14 06:02:00,50.0,47.5,30.01,NE,45,3.0,-999.0,91,-99.99,,,-99.99,meteohub,2014-02-14 11:02:00,
2014-02-14 06:07:00,50.0,47.5,30.01,NE,45,3.0,-999.0,91,-99.99,,,-99.99,meteohub,2014-02-14 11:07:00,
2014-02-14 06:12:00,50.0,47.8,30.01,SE,135,2.0,-999.0,92,-99.99,,,-99.99,meteohub,2014-02-14 11:12:00,
2014-02-14 06:17:00,50.0,47.8,30.01,SE,135,1.0,-999.0,92,-99.99,,,-99.99,meteohub,2014-02-14 11:17:00,
2014-02-14 06:22:00,50.0,47.8,30.01,NE,45,4.0,-999.0,92,-99.99,,,-99.99,meteohub,2014-02-14 11:22:00,
2014-02-14 06:27:00,50.0,47.8,30.01,NE,45,3.0,-999.0,92,-99.99,,,-99.99,meteohub,2014-02-14 11:27:00,
2014-02-14 06:32:00,48.9,47.8,30.01,NE,45,5.0,-999.0,96,-99.99,,,-99.99,meteohub,2014-02-14 11:32:00,
2014-02-14 06:37:00,50.0,47.8,30.01,NE,45,6.0,-999.0,92,-99.99,,,-99.99,meteohub,2014-02-14 11:37:00,
2014-02-14 06:42:00,48.9,46.8,30.03,NE,45,3.0,-999.0,92,-99.99,,,-99.99,meteohub,2014-02-14 11:42:00,
2014-02-14 06:47:00,48.9,46.8,30.03,NE,45,5.0,-999.0,92,-99.99,,,-99.99,meteohub,2014-02-14 11:47:00,
2014-02-14 06:52:00,48.9,46.8,30.03,NE,45,3.0,-999.0,92,-99.99,,,-99.99,meteohub,2014-02-14 11:52:00,
2014-02-14 06:57:00,48.9,46.4,30.03,NE,45,6.0,-999.0,91,-99.99,,,-99.99,meteohub,2014-02-14 11:57:00,
2014-02-14 07:02:00,48.9,46.4,30.03,NE,45,2.0,-999.0,91,-99.99,,,-99.99,meteohub,2014-02-14 12:02:00,
2014-02-14 07:07:00,48.0,46.6,30.04,NNW,337,5.0,-999.0,95,-99.99,,,-99.99,meteohub,2014-02-14 12:07:00,
2014-02-14 07:12:00,48.9,46.0,30.04,NE,45,7.0,-999.0,90,-99.99,,,-99.99,meteohub,2014-02-14 12:12:00,
2014-02-14 07:17:00,48.9,46.0,30.03,NE,45,3.0,-999.0,90,-99.99,,,-99.99,meteohub,2014-02-14 12:17:00,
2014-02-14 07:22:00,48.9,46.0,30.04,NNE,22,3.0,-999.0,90,-99.99,,,-99.99,meteohub,2014-02-14 12:22:00,
2014-02-14 07:27:00,50.0,47.1,30.04,NE,45,1.0,-999.0,90,-99.99,,,0.00,meteohub,2014-02-14 12:27:00,
2014-02-14 07:32:00,50.0,47.1,30.03,SE,135,4.0,-999.0,90,-99.99,,,0.00,meteohub,2014-02-14 12:32:00,
2014-02-14 07:37:00,50.0,46.6,30.04,NE,45,5.0,-999.0,88,-99.99,,,-99.99,meteohub,2014-02-14 12:37:00,
2014-02-14 07:42:00,50.0,46.2,30.04,NE,45,8.0,-999.0,87,-99.99,,,-99.99,meteohub,2014-02-14 12:42:00,
2014-02-14 07:47:00,51.1,46.8,30.04,NE,45,4.0,-999.0,85,-99.99,,,-99.99,meteohub,2014-02-14 12:47:00,
2014-02-14 07:52:00,51.1,46.8,30.04,NE,45,6.0,-999.0,85,-99.99,,,-99.99,meteohub,2014-02-14 12:52:00,
2014-02-14 07:58:00,51.1,46.0,30.04,NE,45,5.0,-999.0,83,-99.99,,,-99.99,meteohub,2014-02-14 12:58:00,
2014-02-14 08:03:00,51.1,47.3,30.04,NE,45,5.0,-999.0,87,-99.99,,,-99.99,meteohub,2014-02-14 13:03:00,
2014-02-14 08:08:00,52.0,45.7,30.04,NE,45,7.0,-999.0,79,-99.99,,,-99.99,meteohub,2014-02-14 13:08:00,
2014-02-14 08:13:00,52.0,45.3,30.04,NE,45,6.0,-999.0,78,-99.99,,,-99.99,meteohub,2014-02-14 13:13:00,
2014-02-14 08:18:00,52.0,45.0,30.04,NE,45,6.0,-999.0,77,-99.99,,,0.00,meteohub,2014-02-14 13:18:00,
2014-02-14 08:23:00,52.0,45.3,30.06,NE,45,2.0,-999.0,78,-99.99,,,0.00,meteohub,2014-02-14 13:23:00,
2014-02-14 08:28:00,53.1,44.2,30.06,NE,45,7.0,-999.0,72,-99.99,,,-99.99,meteohub,2014-02-14 13:28:00,
2014-02-14 08:34:00,53.1,43.5,30.06,NE,45,3.0,-999.0,70,-99.99,,,-99.99,meteohub,2014-02-14 13:34:00,
2014-02-14 08:39:00,53.1,43.2,30.06,SE,135,6.0,-999.0,69,-99.99,,,-99.99,meteohub,2014-02-14 13:39:00,
2014-02-14 08:44:00,53.1,44.2,30.08,NE,45,6.0,-999.0,72,-99.99,,,-99.99,meteohub,2014-02-14 13:44:00,
2014-02-14 08:49:00,54.0,44.1,30.08,NE,45,6.0,-999.0,69,-99.99,,,-99.99,meteohub,2014-02-14 13:49:00,
2014-02-14 08:54:00,54.0,42.1,30.08,NE,45,7.0,-999.0,64,-99.99,,,-99.99,meteohub,2014-02-14 13:54:00,
2014-02-14 08:59:00,55.0,43.9,30.08,NE,45,1.0,-999.0,66,-99.99,,,-99.99,meteohub,2014-02-14 13:59:00,
2014-02-14 09:04:00,55.0,42.6,30.08,NE,45,6.0,-999.0,63,-99.99,,,-99.99,meteohub,2014-02-14 14:04:00,
2014-02-14 09:10:00,55.0,42.3,30.08,NE,45,6.0,-999.0,62,-99.99,,,-99.99,meteohub,2014-02-14 14:10:00,
2014-02-14 09:15:00,55.9,42.6,30.08,NE,45,9.0,-999.0,61,-99.99,,,-99.99,meteohub,2014-02-14 14:15:00,
2014-02-14 09:20:00,55.9,41.9,30.08,NE,45,5.0,-999.0,59,-99.99,,,0.00,meteohub,2014-02-14 14:20:00,
2014-02-14 09:25:00,55.9,41.9,30.08,NE,45,11.0,-999.0,59,-99.99,,,0.00,meteohub,2014-02-14 14:25:00,
2014-02-14 09:30:00,55.9,42.3,30.09,SE,135,3.0,-999.0,60,-99.99,,,-99.99,meteohub,2014-02-14 14:30:00,
2014-02-14 09:35:00,55.9,42.3,30.09,NE,45,5.0,-999.0,60,-99.99,,,-99.99,meteohub,2014-02-14 14:35:00,
2014-02-14 09:40:00,57.0,44.6,30.09,NE,45,5.0,-999.0,63,-99.99,,,-99.99,meteohub,2014-02-14 14:40:00,
2014-02-14 09:46:00,57.0,43.7,30.09,NE,45,1.0,-999.0,61,-99.99,,,-99.99,meteohub,2014-02-14 14:46:00,
2014-02-14 09:51:00,57.0,42.8,30.09,NE,45,5.0,-999.0,59,-99.99,,,-99.99,meteohub,2014-02-14 14:51:00,
2014-02-14 09:56:00,57.0,43.7,30.09,NE,45,7.0,-999.0,61,-99.99,,,-99.99,meteohub,2014-02-14 14:56:00,
2014-02-14 10:01:00,57.9,44.6,30.11,NE,45,4.0,-999.0,61,-99.99,,,-99.99,meteohub,2014-02-14 15:01:00,
2014-02-14 10:06:00,57.9,44.6,30.11,NE,45,6.0,-999.0,61,-99.99,,,-99.99,meteohub,2014-02-14 15:06:00,
2014-02-14 10:11:00,57.9,44.6,30.11,NNE,22,1.0,-999.0,61,-99.99,,,-99.99,meteohub,2014-02-14 15:11:00,
2014-02-14 10:17:00,59.0,44.2,30.11,NE,45,6.0,-999.0,58,-99.99,,,-99.99,meteohub,2014-02-14 15:17:00,
2014-02-14 10:22:00,59.0,45.5,30.11,NE,45,6.0,-999.0,61,-99.99,,,-99.99,meteohub,2014-02-14 15:22:00,
2014-02-14 10:27:00,59.0,45.5,30.11,SE,135,3.0,-999.0,61,-99.99,,,-99.99,meteohub,2014-02-14 15:27:00,
2014-02-14 10:32:00,60.1,46.6,30.11,NE,45,7.0,-999.0,61,-99.99,,,-99.99,meteohub,2014-02-14 15:32:00,
2014-02-14 10:37:00,61.0,47.8,30.11,NE,45,7.0,-999.0,62,-99.99,,,-99.99,meteohub,2014-02-14 15:37:00,
2014-02-14 10:42:00,60.1,46.6,30.11,NW,315,1.0,-999.0,61,-99.99,,,-99.99,meteohub,2014-02-14 15:42:00,
2014-02-14 10:47:00,61.0,46.9,30.11,NE,45,2.0,-999.0,60,-99.99,,,-99.99,meteohub,2014-02-14 15:47:00,
2014-02-14 10:52:00,61.0,46.0,30.11,NE,45,6.0,-999.0,58,-99.99,,,-99.99,meteohub,2014-02-14 15:52:00,
2014-02-14 10:57:00,61.0,46.6,30.11,SE,135,1.0,-999.0,59,-99.99,,,-99.99,meteohub,2014-02-14 15:57:00,
2014-02-14 11:02:00,61.0,46.6,30.11,NE,45,2.0,-999.0,59,-99.99,,,-99.99,meteohub,2014-02-14 16:02:00,
2014-02-14 11:07:00,62.1,48.0,30.09,NE,45,1.0,-999.0,60,-99.99,,,-99.99,meteohub,2014-02-14 16:07:00,
2014-02-14 11:12:00,63.0,48.4,30.09,NE,45,4.0,-999.0,59,-99.99,,,-99.99,meteohub,2014-02-14 16:12:00,
2014-02-14 11:17:00,63.0,47.5,30.09,West,270,1.0,-999.0,57,-99.99,,,-99.99,meteohub,2014-02-14 16:17:00,
2014-02-14 11:22:00,63.0,47.5,30.09,NE,45,4.0,-999.0,57,-99.99,,,-99.99,meteohub,2014-02-14 16:22:00,
2014-02-14 11:27:00,63.0,47.5,30.09,SE,135,5.0,-999.0,57,-99.99,,,-99.99,meteohub,2014-02-14 16:27:00,
2014-02-14 11:32:00,62.1,47.5,30.09,NE,45,1.0,-999.0,59,-99.99,,,-99.99,meteohub,2014-02-14 16:32:00,
2014-02-14 11:37:00,63.0,48.9,30.09,NE,45,1.0,-999.0,60,-99.99,,,-99.99,meteohub,2014-02-14 16:37:00,
2014-02-14 11:42:00,63.0,48.4,30.09,NNW,337,1.0,-999.0,59,-99.99,,,-99.99,meteohub,2014-02-14 16:42:00,
2014-02-14 11:47:00,63.0,50.5,30.09,West,270,7.0,-999.0,64,-99.99,,,0.00,meteohub,2014-02-14 16:47:00,
2014-02-14 11:52:00,62.1,49.8,30.09,West,270,4.0,-999.0,64,-99.99,,,0.00,meteohub,2014-02-14 16:52:00,
2014-02-14 11:57:00,62.1,48.9,30.09,WSW,247,1.0,-999.0,62,-99.99,,,-99.99,meteohub,2014-02-14 16:57:00,
2014-02-14 12:02:00,64.0,49.5,30.09,West,270,4.0,-999.0,59,-99.99,,,-99.99,meteohub,2014-02-14 17:02:00,
2014-02-14 12:07:00,64.0,49.5,30.09,West,270,3.0,-999.0,59,-99.99,,,0.00,meteohub,2014-02-14 17:07:00,
2014-02-14 12:12:00,63.0,48.4,30.08,West,270,4.0,-999.0,59,-99.99,,,0.00,meteohub,2014-02-14 17:12:00,
2014-02-14 12:17:00,63.0,49.3,30.08,NW,315,1.0,-999.0,61,-99.99,,,-99.99,meteohub,2014-02-14 17:17:00,
2014-02-14 12:22:00,63.0,48.4,30.08,West,270,2.0,-999.0,59,-99.99,,,-99.99,meteohub,2014-02-14 17:22:00,
2014-02-14 12:27:00,64.0,49.5,30.08,NW,315,4.0,-999.0,59,-99.99,,,-99.99,meteohub,2014-02-14 17:27:00,
2014-02-14 12:32:00,64.9,49.3,30.08,NE,45,0.0,-999.0,57,-99.99,,,-99.99,meteohub,2014-02-14 17:32:00,
2014-02-14 12:37:00,64.0,48.6,30.06,WNW,292,2.0,-999.0,57,-99.99,,,-99.99,meteohub,2014-02-14 17:37:00,
2014-02-14 12:42:00,64.0,48.6,30.06,NNW,337,1.0,-999.0,57,-99.99,,,-99.99,meteohub,2014-02-14 17:42:00,
2014-02-14 12:47:00,64.9,49.8,30.06,West,270,0.0,-999.0,58,-99.99,,,-99.99,meteohub,2014-02-14 17:47:00,
2014-02-14 12:52:00,63.0,48.9,30.06,WSW,247,4.0,-999.0,60,-99.99,,,-99.99,meteohub,2014-02-14 17:52:00,
2014-02-14 12:57:00,63.0,50.2,30.06,WNW,292,10.0,-999.0,63,-99.99,,,-99.99,meteohub,2014-02-14 17:57:00,
2014-02-14 13:02:00,62.1,50.5,30.06,WSW,247,10.0,-999.0,66,-99.99,,,-99.99,meteohub,2014-02-14 18:02:00,
2014-02-14 13:07:00,61.0,50.7,30.06,WSW,247,10.0,-999.0,69,-99.99,,,-99.99,meteohub,2014-02-14 18:07:00,
2014-02-14 13:12:00,61.0,51.1,30.04,WSW,247,8.0,-999.0,70,-99.99,,,-99.99,meteohub,2014-02-14 18:12:00,
2014-02-14 13:17:00,61.0,49.5,30.04,West,270,8.0,-999.0,66,-99.99,,,-99.99,meteohub,2014-02-14 18:17:00,
2014-02-14 13:22:00,61.0,50.0,30.04,WSW,247,9.0,-999.0,67,-99.99,,,-99.99,meteohub,2014-02-14 18:22:00,
2014-02-14 13:27:00,61.0,50.4,30.04,WSW,247,6.0,-999.0,68,-99.99,,,-99.99,meteohub,2014-02-14 18:27:00,
2014-02-14 13:32:00,62.1,49.8,30.04,West,270,7.0,-999.0,64,-99.99,,,-99.99,meteohub,2014-02-14 18:32:00,
2014-02-14 13:37:00,61.0,49.1,30.04,West,270,2.0,-999.0,65,-99.99,,,-99.99,meteohub,2014-02-14 18:37:00,
2014-02-14 13:42:00,62.1,50.5,30.04,West,270,7.0,-999.0,66,-99.99,,,-99.99,meteohub,2014-02-14 18:42:00,
2014-02-14 13:47:00,62.1,50.2,30.03,WSW,247,8.0,-999.0,65,-99.99,,,-99.99,meteohub,2014-02-14 18:47:00,
2014-02-14 13:52:00,62.1,50.5,30.03,WSW,247,6.0,-999.0,66,-99.99,,,-99.99,meteohub,2014-02-14 18:52:00,
2014-02-14 13:57:00,61.0,49.1,30.03,WSW,247,8.0,-999.0,65,-99.99,,,-99.99,meteohub,2014-02-14 18:57:00,
2014-02-14 14:02:00,61.0,50.0,30.03,WSW,247,7.0,-999.0,67,-99.99,,,-99.99,meteohub,2014-02-14 19:02:00,
2014-02-14 14:07:00,62.1,50.2,30.01,WSW,247,7.0,-999.0,65,-99.99,,,-99.99,meteohub,2014-02-14 19:07:00,
2014-02-14 14:12:00,62.1,49.8,30.01,West,270,6.0,-999.0,64,-99.99,,,-99.99,meteohub,2014-02-14 19:12:00,
2014-02-14 14:17:00,63.0,50.5,30.01,WSW,247,7.0,-999.0,64,-99.99,,,-99.99,meteohub,2014-02-14 19:17:00,
2014-02-14 14:22:00,62.1,51.4,30.01,WSW,247,7.0,-999.0,68,-99.99,,,0.00,meteohub,2014-02-14 19:22:00,
2014-02-14 14:27:00,62.1,50.2,30.01,West,270,8.0,-999.0,65,-99.99,,,0.00,meteohub,2014-02-14 19:27:00,
2014-02-14 14:32:00,62.1,50.5,30.01,West,270,6.0,-999.0,66,-99.99,,,0.00,meteohub,2014-02-14 19:32:00,
2014-02-14 14:37:00,62.1,50.9,30.01,West,270,7.0,-999.0,67,-99.99,,,0.00,meteohub,2014-02-14 19:37:00,
2014-02-14 14:42:00,62.1,50.9,30.01,WNW,292,6.0,-999.0,67,-99.99,,,0.00,meteohub,2014-02-14 19:42:00,
2014-02-14 14:47:00,62.1,50.9,30.01,West,270,7.0,-999.0,67,-99.99,,,0.00,meteohub,2014-02-14 19:47:00,
2014-02-14 14:52:00,63.0,51.8,30.01,NNW,337,4.0,-999.0,67,-99.99,,,0.00,meteohub,2014-02-14 19:52:00,
2014-02-14 14:57:00,63.0,51.8,30.01,NW,315,2.0,-999.0,67,-99.99,,,0.00,meteohub,2014-02-14 19:57:00,
2014-02-14 15:02:00,64.0,52.0,30.01,West,270,2.0,-999.0,65,-99.99,,,0.00,meteohub,2014-02-14 20:02:00,
2014-02-14 15:07:00,63.0,48.9,30.01,WSW,247,7.0,-999.0,60,-99.99,,,0.00,meteohub,2014-02-14 20:07:00,
2014-02-14 15:12:00,62.1,49.8,30.01,WSW,247,9.0,-999.0,64,-99.99,,,-99.99,meteohub,2014-02-14 20:12:00,
2014-02-14 15:17:00,64.0,51.6,30.01,West,270,7.0,-999.0,64,-99.99,,,-99.99,meteohub,2014-02-14 20:17:00,
2014-02-14 15:22:00,63.0,51.4,30.01,WSW,247,4.0,-999.0,66,-99.99,,,-99.99,meteohub,2014-02-14 20:22:00,
2014-02-14 15:27:00,63.0,50.5,30.01,WSW,247,7.0,-999.0,64,-99.99,,,-99.99,meteohub,2014-02-14 20:27:00,
2014-02-14 15:32:00,63.0,50.5,30.00,WSW,247,5.0,-999.0,64,-99.99,,,-99.99,meteohub,2014-02-14 20:32:00,
2014-02-14 15:37:00,63.0,50.5,30.00,NW,315,4.0,-999.0,64,-99.99,,,-99.99,meteohub,2014-02-14 20:37:00,
2014-02-14 15:42:00,63.0,51.1,30.00,West,270,8.0,-999.0,65,-99.99,,,0.00,meteohub,2014-02-14 20:42:00,
2014-02-14 15:47:00,62.1,50.2,30.00,SW,225,6.0,-999.0,65,-99.99,,,0.00,meteohub,2014-02-14 20:47:00,
2014-02-14 15:52:00,63.0,51.1,30.00,WSW,247,7.0,-999.0,65,-99.99,,,-99.99,meteohub,2014-02-14 20:52:00,
2014-02-14 15:57:00,63.0,50.5,30.00,WSW,247,8.0,-999.0,64,-99.99,,,-99.99,meteohub,2014-02-14 20:57:00,
2014-02-14 16:02:00,63.0,50.5,30.00,WSW,247,8.0,-999.0,64,-99.99,,,-99.99,meteohub,2014-02-14 21:02:00,
2014-02-14 16:07:00,63.0,51.8,30.01,WSW,247,8.0,-999.0,67,-99.99,,,-99.99,meteohub,2014-02-14 21:07:00,
2014-02-14 16:12:00,63.0,51.4,30.01,West,270,7.0,-999.0,66,-99.99,,,-99.99,meteohub,2014-02-14 21:12:00,
2014-02-14 16:17:00,63.0,51.1,30.01,West,270,4.0,-999.0,65,-99.99,,,-99.99,meteohub,2014-02-14 21:17:00,
2014-02-14 16:22:00,63.0,51.4,30.01,West,270,9.0,-999.0,66,-99.99,,,-99.99,meteohub,2014-02-14 21:22:00,
2014-02-14 16:27:00,63.0,51.4,30.01,West,270,7.0,-999.0,66,-99.99,,,-99.99,meteohub,2014-02-14 21:27:00,
2014-02-14 16:32:00,62.1,50.5,30.01,WSW,247,3.0,-999.0,66,-99.99,,,-99.99,meteohub,2014-02-14 21:32:00,
2014-02-14 16:37:00,62.1,50.5,30.01,SW,225,7.0,-999.0,66,-99.99,,,-99.99,meteohub,2014-02-14 21:37:00,
2014-02-14 16:42:00,63.0,51.4,30.01,West,270,7.0,-999.0,66,-99.99,,,-99.99,meteohub,2014-02-14 21:42:00,
2014-02-14 16:47:00,63.0,52.2,30.01,SW,225,8.0,-999.0,68,-99.99,,,-99.99,meteohub,2014-02-14 21:47:00,
2014-02-14 16:52:00,63.0,51.1,30.00,WSW,247,3.0,-999.0,65,-99.99,,,-99.99,meteohub,2014-02-14 21:52:00,
2014-02-14 16:57:00,63.0,51.8,30.00,WSW,247,6.0,-999.0,67,-99.99,,,-99.99,meteohub,2014-02-14 21:57:00,
2014-02-14 17:02:00,63.0,51.4,30.00,WSW,247,6.0,-999.0,66,-99.99,,,-99.99,meteohub,2014-02-14 22:02:00,
2014-02-14 17:07:00,63.0,51.8,30.00,WSW,247,2.0,-999.0,67,-99.99,,,-99.99,meteohub,2014-02-14 22:07:00,
2014-02-14 17:12:00,63.0,52.7,30.00,WSW,247,6.0,-999.0,69,-99.99,,,-99.99,meteohub,2014-02-14 22:12:00,
2014-02-14 17:17:00,63.0,51.8,30.00,SW,225,4.0,-999.0,67,-99.99,,,-99.99,meteohub,2014-02-14 22:17:00,
2014-02-14 17:22:00,64.0,52.9,30.00,West,270,5.0,-999.0,67,-99.99,,,-99.99,meteohub,2014-02-14 22:22:00,
2014-02-14 17:27:00,63.0,51.1,30.01,West,270,6.0,-999.0,65,-99.99,,,-99.99,meteohub,2014-02-14 22:27:00,
2014-02-14 17:32:00,63.0,51.4,30.01,NNW,337,1.0,-999.0,66,-99.99,,,-99.99,meteohub,2014-02-14 22:32:00,
2014-02-14 17:37:00,63.0,51.4,30.01,West,270,6.0,-999.0,66,-99.99,,,-99.99,meteohub,2014-02-14 22:37:00,
2014-02-14 17:42:00,62.1,51.8,30.01,West,270,5.0,-999.0,69,-99.99,,,-99.99,meteohub,2014-02-14 22:42:00,
2014-02-14 17:47:00,63.0,51.8,30.01,West,270,7.0,-999.0,67,-99.99,,,-99.99,meteohub,2014-02-14 22:47:00,
2014-02-14 17:52:00,62.1,51.4,30.01,West,270,5.0,-999.0,68,-99.99,,,-99.99,meteohub,2014-02-14 22:52:00,
2014-02-14 17:55:00,62.1,51.4,30.01,WNW,292,7.0,-999.0,68,-99.99,,,-99.99,meteohub,2014-02-14 22:55:00,
2014-02-14 18:00:00,62.1,51.8,30.01,WNW,292,5.0,-999.0,69,-99.99,,,-99.99,meteohub,2014-02-14 23:00:00,
2014-02-14 18:05:00,62.1,51.8,30.00,West,270,6.0,-999.0,69,-99.99,,,-99.99,meteohub,2014-02-14 23:05:00,
2014-02-14 18:11:00,61.0,51.1,30.00,WSW,247,5.0,-999.0,70,-99.99,,,-99.99,meteohub,2014-02-14 23:11:00,
2014-02-14 18:16:00,61.0,51.1,30.00,WNW,292,2.0,-999.0,70,-99.99,,,-99.99,meteohub,2014-02-14 23:16:00,
2014-02-14 18:21:00,61.0,52.0,30.01,WNW,292,5.0,-999.0,72,-99.99,,,-99.99,meteohub,2014-02-14 23:21:00,
2014-02-14 18:26:00,60.1,51.1,30.01,West,270,3.0,-999.0,72,-99.99,,,-99.99,meteohub,2014-02-14 23:26:00,
2014-02-14 18:31:00,60.1,51.1,30.01,WNW,292,5.0,-999.0,72,-99.99,,,-99.99,meteohub,2014-02-14 23:31:00,
2014-02-14 18:36:00,60.1,51.4,30.01,WNW,292,3.0,-999.0,73,-99.99,,,-99.99,meteohub,2014-02-14 23:36:00,
2014-02-14 18:41:00,60.1,51.8,30.01,WNW,292,4.0,-999.0,74,-99.99,,,-99.99,meteohub,2014-02-14 23:41:00,
2014-02-14 18:46:00,60.1,51.8,30.01,WNW,292,4.0,-999.0,74,-99.99,,,-99.99,meteohub,2014-02-14 23:46:00,
2014-02-14 18:52:00,60.1,51.8,30.01,WSW,247,4.0,-999.0,74,-99.99,,,-99.99,meteohub,2014-02-14 23:52:00,
2014-02-14 18:57:00,60.1,52.2,30.01,West,270,1.0,-999.0,75,-99.99,,,-99.99,meteohub,2014-02-14 23:57:00,
2014-02-14 19:02:00,60.1,51.8,30.01,West,270,2.0,-999.0,74,-99.99,,,-99.99,meteohub,2014-02-15 00:02:00,
2014-02-14 19:07:00,60.1,52.2,30.01,West,270,2.0,-999.0,75,-99.99,,,-99.99,meteohub,2014-02-15 00:07:00,
2014-02-14 19:12:00,60.1,52.2,30.01,West,270,1.0,-999.0,75,-99.99,,,-99.99,meteohub,2014-02-15 00:12:00,
2014-02-14 19:17:00,60.1,52.2,30.01,West,270,2.0,-999.0,75,-99.99,,,-99.99,meteohub,2014-02-15 00:17:00,
2014-02-14 19:22:00,60.1,52.2,30.01,SW,225,3.0,-999.0,75,-99.99,,,-99.99,meteohub,2014-02-15 00:22:00,
2014-02-14 19:27:00,60.1,52.2,30.00,WSW,247,0.0,-999.0,75,-99.99,,,-99.99,meteohub,2014-02-15 00:27:00,
2014-02-14 19:32:00,60.1,52.2,30.00,SW,225,0.0,-999.0,75,-99.99,,,-99.99,meteohub,2014-02-15 00:32:00,
2014-02-14 19:37:00,60.1,51.8,30.01,WNW,292,5.0,-999.0,74,-99.99,,,-99.99,meteohub,2014-02-15 00:37:00,
2014-02-14 19:42:00,60.1,52.2,30.01,WNW,292,3.0,-999.0,75,-99.99,,,-99.99,meteohub,2014-02-15 00:42:00,
2014-02-14 19:47:00,59.0,51.1,30.01,NW,315,5.0,-999.0,75,-99.99,,,-99.99,meteohub,2014-02-15 00:47:00,
2014-02-14 19:52:00,60.1,52.5,30.01,West,270,2.0,-999.0,76,-99.99,,,-99.99,meteohub,2014-02-15 00:52:00,
2014-02-14 19:57:00,60.1,52.9,30.03,West,270,2.0,-999.0,77,-99.99,,,-99.99,meteohub,2014-02-15 00:57:00,
2014-02-14 20:02:00,59.0,51.8,30.03,West,270,5.0,-999.0,77,-99.99,,,-99.99,meteohub,2014-02-15 01:02:00,
2014-02-14 20:07:00,59.0,52.2,30.03,West,270,2.0,-999.0,78,-99.99,,,-99.99,meteohub,2014-02-15 01:07:00,
2014-02-14 20:12:00,59.0,52.2,30.04,WNW,292,4.0,-999.0,78,-99.99,,,-99.99,meteohub,2014-02-15 01:12:00,
2014-02-14 20:17:00,59.0,52.5,30.04,WNW,292,0.0,-999.0,79,-99.99,,,-99.99,meteohub,2014-02-15 01:17:00,
2014-02-14 20:22:00,59.0,52.5,30.04,WNW,292,2.0,-999.0,79,-99.99,,,-99.99,meteohub,2014-02-15 01:22:00,
2014-02-14 20:27:00,60.1,52.9,30.03,SW,225,5.0,-999.0,77,-99.99,,,-99.99,meteohub,2014-02-15 01:27:00,
2014-02-14 20:32:00,60.1,52.9,30.03,WSW,247,4.0,-999.0,77,-99.99,,,-99.99,meteohub,2014-02-15 01:32:00,
2014-02-14 20:37:00,60.1,52.2,30.03,WSW,247,5.0,-999.0,75,-99.99,,,-99.99,meteohub,2014-02-15 01:37:00,
2014-02-14 20:42:00,60.1,52.2,30.04,West,270,6.0,-999.0,75,-99.99,,,-99.99,meteohub,2014-02-15 01:42:00,
2014-02-14 20:47:00,60.1,52.2,30.04,WNW,292,3.0,-999.0,75,-99.99,,,-99.99,meteohub,2014-02-15 01:47:00,
2014-02-14 20:52:00,60.1,52.2,30.04,WNW,292,3.0,-999.0,75,-99.99,,,-99.99,meteohub,2014-02-15 01:52:00,
2014-02-14 20:57:00,59.0,51.4,30.04,WNW,292,5.0,-999.0,76,-99.99,,,-99.99,meteohub,2014-02-15 01:57:00,
2014-02-14 21:02:00,60.1,52.5,30.04,West,270,2.0,-999.0,76,-99.99,,,-99.99,meteohub,2014-02-15 02:02:00,
2014-02-14 21:07:00,60.1,53.6,30.04,West,270,3.0,-999.0,79,-99.99,,,-99.99,meteohub,2014-02-15 02:07:00,
2014-02-14 21:12:00,59.0,52.2,30.04,West,270,2.0,-999.0,78,-99.99,,,-99.99,meteohub,2014-02-15 02:12:00,
2014-02-14 21:17:00,59.0,52.2,30.04,West,270,1.0,-999.0,78,-99.99,,,-99.99,meteohub,2014-02-15 02:17:00,
2014-02-14 21:22:00,60.1,52.5,30.04,West,270,4.0,-999.0,76,-99.99,,,-99.99,meteohub,2014-02-15 02:22:00,
2014-02-14 21:27:00,60.1,52.5,30.04,SSW,202,4.0,-999.0,76,-99.99,,,-99.99,meteohub,2014-02-15 02:27:00,
2014-02-14 21:32:00,60.1,52.9,30.04,South,180,4.0,-999.0,77,-99.99,,,-99.99,meteohub,2014-02-15 02:32:00,
2014-02-14 21:37:00,60.1,52.9,30.03,South,180,2.0,-999.0,77,-99.99,,,-99.99,meteohub,2014-02-15 02:37:00,
2014-02-14 21:42:00,60.1,53.2,30.04,South,180,2.0,-999.0,78,-99.99,,,-99.99,meteohub,2014-02-15 02:42:00,
2014-02-14 21:47:00,60.1,52.9,30.04,South,180,2.0,-999.0,77,-99.99,,,-99.99,meteohub,2014-02-15 02:47:00,
2014-02-14 21:52:00,60.1,53.2,30.04,South,180,2.0,-999.0,78,-99.99,,,-99.99,meteohub,2014-02-15 02:52:00,
2014-02-14 21:57:00,59.0,52.2,30.03,South,180,3.0,-999.0,78,-99.99,,,-99.99,meteohub,2014-02-15 02:57:00,
2014-02-14 22:02:00,59.0,52.2,30.03,South,180,1.0,-999.0,78,-99.99,,,-99.99,meteohub,2014-02-15 03:02:00,
2014-02-14 22:07:00,59.0,52.5,30.04,South,180,2.0,-999.0,79,-99.99,,,-99.99,meteohub,2014-02-15 03:07:00,
2014-02-14 22:12:00,59.0,52.5,30.04,South,180,1.0,-999.0,79,-99.99,,,-99.99,meteohub,2014-02-15 03:12:00,
2014-02-14 22:17:00,60.1,54.3,30.04,South,180,2.0,-999.0,81,-99.99,,,-99.99,meteohub,2014-02-15 03:17:00,
2014-02-14 22:22:00,60.1,53.6,30.04,South,180,2.0,-999.0,79,-99.99,,,-99.99,meteohub,2014-02-15 03:22:00,
2014-02-14 22:27:00,60.1,53.2,30.04,SSW,202,3.0,-999.0,78,-99.99,,,-99.99,meteohub,2014-02-15 03:27:00,
2014-02-14 22:32:00,60.1,52.9,30.04,SSW,202,3.0,-999.0,77,-99.99,,,-99.99,meteohub,2014-02-15 03:32:00,
2014-02-14 22:37:00,60.1,53.6,30.04,SSW,202,2.0,-999.0,79,-99.99,,,-99.99,meteohub,2014-02-15 03:37:00,
2014-02-14 22:42:00,60.1,53.6,30.04,SSW,202,1.0,-999.0,79,-99.99,,,-99.99,meteohub,2014-02-15 03:42:00,
2014-02-14 22:47:00,60.1,53.6,30.04,SSW,202,2.0,-999.0,79,-99.99,,,-99.99,meteohub,2014-02-15 03:47:00,
2014-02-14 22:52:00,60.1,54.5,30.04,SSW,202,3.0,-999.0,82,-99.99,,,-99.99,meteohub,2014-02-15 03:52:00,
2014-02-14 22:57:00,60.1,54.0,30.04,SSW,202,3.0,-999.0,80,-99.99,,,-99.99,meteohub,2014-02-15 03:57:00,
2014-02-14 23:02:00,60.1,53.6,30.04,SSW,202,4.0,-999.0,79,-99.99,,,-99.99,meteohub,2014-02-15 04:02:00,
2014-02-14 23:07:00,60.1,54.0,30.04,SSW,202,3.0,-999.0,80,-99.99,,,-99.99,meteohub,2014-02-15 04:07:00,
2014-02-14 23:12:00,60.1,54.0,30.04,SSW,202,4.0,-999.0,80,-99.99,,,-99.99,meteohub,2014-02-15 04:12:00,
2014-02-14 23:17:00,60.1,54.0,30.04,SW,225,5.0,-999.0,80,-99.99,,,-99.99,meteohub,2014-02-15 04:17:00,
2014-02-14 23:22:00,61.0,53.8,30.04,SW,225,6.0,-999.0,77,-99.99,,,-99.99,meteohub,2014-02-15 04:22:00,
2014-02-14 23:27:00,61.0,54.7,30.04,WSW,247,6.0,-999.0,80,-99.99,,,-99.99,meteohub,2014-02-15 04:27:00,
2014-02-14 23:32:00,61.0,53.8,30.04,SW,225,5.0,-999.0,77,-99.99,,,-99.99,meteohub,2014-02-15 04:32:00,
2014-02-14 23:37:00,61.0,53.8,30.04,SW,225,7.0,-999.0,77,-99.99,,,-99.99,meteohub,2014-02-15 04:37:00,
2014-02-14 23:42:00,61.0,53.8,30.03,SSW,202,6.0,-999.0,77,-99.99,,,-99.99,meteohub,2014-02-15 04:42:00,
2014-02-14 23:47:00,61.0,54.7,30.03,SSE,157,4.0,-999.0,80,-99.99,,,-99.99,meteohub,2014-02-15 04:47:00,
2014-02-14 23:52:00,61.0,54.7,30.01,South,180,4.0,-999.0,80,-99.99,,,-99.99,meteohub,2014-02-15 04:52:00,
2014-02-14 23:57:00,60.1,53.6,30.01,South,180,3.0,-999.0,79,-99.99,,,-99.99,meteohub,2014-02-15 04:57:00,